Time;durP1;ratioP1;P1;durP2;ratioP2;P2;SDS_P1;SDS_P2;PMS_P1;PMS_P2;Temp;Humidity;BMP_temperature;BMP_pressure;BME280_temperature;BME280_humidity;BME280_pressure;Samples;Min_cycle;Max_cycle;Signal;HPM_P1;HPM_P2
2022/11/10 00:02:04;;;;;;;55.50;12.00;;;;;;;;;;4984578;28;20037;-73
2022/11/10 00:04:30;;;;;;;50.13;11.43;;;;;;;;;;4981389;28;20066;-75
2022/11/10 00:06:56;;;;;;;48.33;12.27;;;;;;;;;;4986460;28;20038;-75
2022/11/10 00:09:22;;;;;;;52.13;12.15;;;;;;;;;;4987426;28;20046;-75
2022/11/10 00:11:48;;;;;;;39.13;10.18;;;;;;;;;;4977276;28;20122;-75
2022/11/10 00:16:59;;;;;;;46.83;9.43;;;;;;;;;;4979072;28;20049;-75
2022/11/10 00:19:26;;;;;;;53.67;9.75;;;;;;;;;;4988732;28;20030;-74
2022/11/10 00:21:52;;;;;;;44.90;10.77;;;;;;;;;;4987957;28;20101;-75
2022/11/10 00:24:18;;;;;;;61.08;11.95;;;;;;;;;;4988071;28;20029;-76
2022/11/10 00:26:44;;;;;;;46.92;9.43;;;;;;;;;;4963417;28;20575;-75
2022/11/10 00:29:10;;;;;;;65.32;11.48;;;;;;;;;;4984344;28;20030;-75
2022/11/10 00:31:39;;;;;;;51.08;9.48;;;;;;;;;;4969985;28;20085;-75
2022/11/10 00:34:10;;;;;;;36.08;9.45;;;;;;;;;;4969413;28;20073;-74
2022/11/10 00:36:36;;;;;;;43.93;9.17;;;;;;;;;;4986837;28;20029;-75
2022/11/10 00:39:02;;;;;;;54.65;8.77;;;;;;;;;;4986079;28;20035;-72
2022/11/10 00:41:28;;;;;;;50.85;9.00;;;;;;;;;;4966026;28;20585;-75
2022/11/10 00:43:54;;;;;;;52.58;9.75;;;;;;;;;;4987396;28;20463;-75
2022/11/10 00:46:20;;;;;;;41.22;8.13;;;;;;;;;;4957389;28;20034;-75
2022/11/10 00:48:46;;;;;;;41.47;8.10;;;;;;;;;;4973162;28;20129;-75
2022/11/10 00:51:17;;;;;;;45.80;8.55;;;;;;;;;;4972594;28;20110;-74
2022/11/10 00:53:43;;;;;;;43.78;8.63;;;;;;;;;;4973294;28;20026;-74
2022/11/10 00:56:09;;;;;;;38.40;7.32;;;;;;;;;;4995133;28;20432;-74
2022/11/10 00:58:35;;;;;;;41.08;7.60;;;;;;;;;;4984799;28;20026;-75
2022/11/10 01:01:02;;;;;;;50.03;10.73;;;;;;;;;;4986859;28;20113;-76
2022/11/10 01:03:28;;;;;;;42.42;9.52;;;;;;;;;;4982143;28;20034;-76
2022/11/10 01:05:54;;;;;;;45.53;8.82;;;;;;;;;;4973879;28;20026;-76
2022/11/10 01:08:20;;;;;;;52.00;9.23;;;;;;;;;;4986488;28;20073;-75
2022/11/10 01:10:46;;;;;;;51.75;10.88;;;;;;;;;;4966266;28;20046;-75
2022/11/10 01:13:12;;;;;;;59.20;10.15;;;;;;;;;;4962411;28;20038;-75
2022/11/10 01:15:39;;;;;;;40.60;9.32;;;;;;;;;;4969394;28;20640;-75
2022/11/10 01:18:05;;;;;;;58.28;9.95;;;;;;;;;;4984093;28;20034;-76
2022/11/10 01:20:32;;;;;;;40.35;9.43;;;;;;;;;;4986868;28;20099;-77
2022/11/10 01:22:58;;;;;;;42.65;9.05;;;;;;;;;;4993072;28;20324;-77
2022/11/10 01:25:24;;;;;;;42.78;11.45;;;;;;;;;;4972226;28;20173;-76
2022/11/10 01:27:50;;;;;;;53.30;9.73;;;;;;;;;;4968372;28;20093;-77
2022/11/10 01:30:17;;;;;;;43.88;9.80;;;;;;;;;;4980621;28;20470;-76
2022/11/10 01:32:43;;;;;;;50.47;10.05;;;;;;;;;;4982147;28;20026;-76
2022/11/10 01:35:09;;;;;;;54.40;9.98;;;;;;;;;;4985504;28;20018;-76
2022/11/10 01:37:36;;;;;;;45.95;9.85;;;;;;;;;;4979783;28;20057;-76
2022/11/10 01:40:03;;;;;;;50.65;9.45;;;;;;;;;;4984487;28;20124;-76
2022/11/10 01:42:40;;;;;;;59.22;10.27;;;;;;;;;;4984619;28;20030;-76
2022/11/10 01:45:21;;;;;;;42.78;9.27;;;;;;;;;;4986680;28;20453;-76
2022/11/10 01:48:01;;;;;;;46.35;10.73;;;;;;;;;;4979303;28;20019;-76
2022/11/10 01:50:28;;;;;;;38.25;9.10;;;;;;;;;;4986825;28;20030;-75
2022/11/10 01:52:57;;;;;;;48.67;9.40;;;;;;;;;;4982960;28;20018;-75
2022/11/10 01:55:24;;;;;;;54.70;10.38;;;;;;;;;;4980955;28;20351;-75
2022/11/10 01:57:50;;;;;;;55.75;10.02;;;;;;;;;;4985054;28;20509;-75
2022/11/10 02:00:17;;;;;;;55.45;9.85;;;;;;;;;;4982659;28;20104;-77
2022/11/10 02:02:49;;;;;;;51.95;10.35;;;;;;;;;;4984994;28;20042;-77
2022/11/10 02:05:15;;;;;;;45.45;10.27;;;;;;;;;;4985597;28;20583;-76
2022/11/10 02:08:00;;;;;;;46.40;9.68;;;;;;;;;;4990379;28;20034;-76
2022/11/10 02:10:26;;;;;;;58.47;10.60;;;;;;;;;;4986895;28;20497;-74
2022/11/10 02:12:53;;;;;;;54.97;12.02;;;;;;;;;;4990150;28;20029;-77
2022/11/10 02:15:19;;;;;;;56.53;12.13;;;;;;;;;;4984947;28;20034;-77
2022/11/10 02:17:46;;;;;;;59.47;11.77;;;;;;;;;;4961448;28;20406;-76
2022/11/10 02:20:15;;;;;;;44.40;10.18;;;;;;;;;;4975272;28;20116;-77
2022/11/10 02:22:41;;;;;;;52.83;11.25;;;;;;;;;;4987110;28;20485;-77
2022/11/10 02:25:07;;;;;;;53.55;11.05;;;;;;;;;;4976346;28;20054;-77
2022/11/10 02:27:52;;;;;;;50.70;13.07;;;;;;;;;;4983115;28;20057;-78
2022/11/10 02:30:18;;;;;;;42.97;10.75;;;;;;;;;;4983991;28;20101;-77
2022/11/10 02:33:03;;;;;;;55.63;12.60;;;;;;;;;;4967895;28;20034;-79
2022/11/10 02:35:29;;;;;;;57.50;12.10;;;;;;;;;;4990998;28;20027;-78
2022/11/10 02:37:55;;;;;;;63.80;13.55;;;;;;;;;;4964997;28;20058;-77
2022/11/10 02:40:21;;;;;;;51.47;11.73;;;;;;;;;;4984763;28;20038;-78
2022/11/10 02:42:47;;;;;;;63.22;13.77;;;;;;;;;;4954102;28;20033;-76
2022/11/10 02:45:13;;;;;;;58.38;12.90;;;;;;;;;;4969736;28;20125;-77
2022/11/10 02:47:39;;;;;;;60.38;13.10;;;;;;;;;;4986270;28;20474;-77
2022/11/10 02:50:06;;;;;;;56.13;12.30;;;;;;;;;;4954470;28;20166;-77
2022/11/10 02:52:33;;;;;;;57.05;12.35;;;;;;;;;;4976051;28;20340;-77
2022/11/10 02:54:59;;;;;;;58.13;12.30;;;;;;;;;;4962686;28;20038;-76
2022/11/10 02:57:26;;;;;;;54.65;12.18;;;;;;;;;;4979226;28;20031;-78
2022/11/10 02:59:52;;;;;;;45.00;11.50;;;;;;;;;;4986717;28;20050;-77
2022/11/10 03:02:19;;;;;;;57.47;12.93;;;;;;;;;;4986770;28;20061;-76
2022/11/10 03:04:45;;;;;;;58.33;12.35;;;;;;;;;;4983145;28;20046;-75
2022/11/10 03:07:11;;;;;;;56.00;13.52;;;;;;;;;;4980183;28;20096;-76
2022/11/10 03:09:37;;;;;;;62.08;11.48;;;;;;;;;;4983524;28;20109;-76
2022/11/10 03:12:03;;;;;;;44.47;11.73;;;;;;;;;;4966753;28;20113;-77
2022/11/10 03:14:29;;;;;;;59.65;12.32;;;;;;;;;;4950355;28;20323;-76
2022/11/10 03:16:55;;;;;;;59.22;12.57;;;;;;;;;;4982924;28;20084;-76
2022/11/10 03:19:21;;;;;;;55.58;12.88;;;;;;;;;;4983689;28;20035;-76
2022/11/10 03:21:47;;;;;;;58.88;12.65;;;;;;;;;;4971331;28;20034;-76
2022/11/10 03:24:13;;;;;;;64.18;12.48;;;;;;;;;;4966254;28;20125;-75
2022/11/10 03:26:40;;;;;;;60.35;12.13;;;;;;;;;;4980906;28;21401;-76
2022/11/10 03:29:06;;;;;;;60.65;11.85;;;;;;;;;;4971428;28;20042;-76
2022/11/10 03:31:32;;;;;;;48.58;13.45;;;;;;;;;;4979975;28;20093;-77
2022/11/10 03:33:58;;;;;;;63.47;12.57;;;;;;;;;;4959103;28;20057;-75
2022/11/10 03:36:24;;;;;;;58.22;11.48;;;;;;;;;;4990004;28;20526;-77
2022/11/10 03:38:50;;;;;;;53.40;11.90;;;;;;;;;;4976574;28;20430;-76
2022/11/10 03:41:16;;;;;;;47.03;11.70;;;;;;;;;;4977677;28;20034;-76
2022/11/10 03:43:42;;;;;;;52.33;11.40;;;;;;;;;;4988082;28;20035;-74
2022/11/10 03:46:08;;;;;;;52.78;12.25;;;;;;;;;;4988627;28;20502;-77
2022/11/10 03:48:34;;;;;;;60.45;13.15;;;;;;;;;;4988518;28;20069;-76
2022/11/10 03:51:00;;;;;;;56.50;13.55;;;;;;;;;;4985537;28;20307;-75
2022/11/10 03:53:26;;;;;;;74.57;14.40;;;;;;;;;;4993131;28;20034;-78
2022/11/10 03:55:52;;;;;;;59.67;14.82;;;;;;;;;;4990450;28;20022;-77
2022/11/10 03:58:18;;;;;;;56.13;12.68;;;;;;;;;;4995218;28;20018;-75
2022/11/10 04:00:44;;;;;;;69.68;16.33;;;;;;;;;;4988157;28;20035;-76
2022/11/10 04:03:10;;;;;;;61.35;13.63;;;;;;;;;;4992513;28;20068;-77
2022/11/10 04:11:05;;;;;;;65.75;15.23;;;;;;;;;;4986984;28;20092;-75
2022/11/10 04:16:16;;;;;;;70.20;18.83;;;;;;;;;;4987675;28;20115;-76
2022/11/10 04:18:42;;;;;;;57.80;15.88;;;;;;;;;;4967237;28;20505;-76
2022/11/10 04:21:08;;;;;;;67.18;17.33;;;;;;;;;;4982498;28;20117;-77
2022/11/10 04:23:35;;;;;;;63.55;16.30;;;;;;;;;;4963950;28;20041;-76
2022/11/10 04:26:29;;;;;;;66.82;17.98;;;;;;;;;;4985209;28;20057;-77
2022/11/10 04:28:56;;;;;;;69.05;17.42;;;;;;;;;;4969249;28;20054;-78
2022/11/10 04:31:23;;;;;;;71.05;18.27;;;;;;;;;;4988350;28;20483;-78
2022/11/10 04:33:50;;;;;;;69.15;17.63;;;;;;;;;;4982692;28;20098;-76
2022/11/10 04:36:17;;;;;;;63.90;17.60;;;;;;;;;;4978689;28;20569;-76
2022/11/10 04:38:43;;;;;;;65.75;16.85;;;;;;;;;;4983999;28;20113;-76
2022/11/10 04:41:09;;;;;;;55.17;16.70;;;;;;;;;;4973581;28;20105;-73
2022/11/10 04:43:35;;;;;;;63.03;16.25;;;;;;;;;;4973880;28;20038;-75
2022/11/10 04:46:02;;;;;;;77.13;17.83;;;;;;;;;;4974133;28;20088;-75
2022/11/10 04:48:29;;;;;;;65.75;16.70;;;;;;;;;;4989596;28;20065;-75
2022/11/10 04:50:55;;;;;;;72.80;17.92;;;;;;;;;;4987411;28;20085;-76
2022/11/10 04:53:21;;;;;;;57.55;16.60;;;;;;;;;;4990446;28;20089;-76
2022/11/10 04:55:47;;;;;;;55.38;16.00;;;;;;;;;;4972529;28;21280;-75
2022/11/10 04:58:14;;;;;;;65.82;16.02;;;;;;;;;;4985094;28;20055;-76
2022/11/10 05:00:40;;;;;;;67.95;17.63;;;;;;;;;;4985460;28;20030;-76
2022/11/10 05:03:08;;;;;;;55.80;15.10;;;;;;;;;;4986904;28;20026;-76
2022/11/10 05:05:34;;;;;;;73.18;16.77;;;;;;;;;;4993142;28;20738;-76
2022/11/10 05:08:00;;;;;;;66.13;16.30;;;;;;;;;;4985181;28;20084;-76
2022/11/10 05:10:26;;;;;;;59.38;15.07;;;;;;;;;;4984130;28;20037;-75
2022/11/10 05:12:53;;;;;;;50.60;14.52;;;;;;;;;;4982457;28;20505;-75
2022/11/10 05:15:19;;;;;;;58.00;15.23;;;;;;;;;;4950918;28;20072;-74
2022/11/10 05:17:52;;;;;;;58.38;13.70;;;;;;;;;;4984920;28;20031;-74
2022/11/10 05:20:19;;;;;;;54.15;14.65;;;;;;;;;;4986131;28;20449;-75
2022/11/10 05:23:36;;;;;;;51.28;14.80;;;;;;;;;;4985725;28;20034;-76
2022/11/10 05:25:32;;;;;;;55.97;15.77;;;;;;;;;;4982637;28;20039;-75
2022/11/10 05:27:58;;;;;;;55.83;14.27;;;;;;;;;;4983323;28;20038;-76
2022/11/10 05:30:24;;;;;;;52.17;14.48;;;;;;;;;;4983854;28;20417;-76
2022/11/10 05:32:50;;;;;;;52.75;15.27;;;;;;;;;;4986444;28;20037;-75
2022/11/10 05:35:16;;;;;;;57.03;16.95;;;;;;;;;;4984793;28;20104;-75
2022/11/10 05:37:42;;;;;;;58.38;14.13;;;;;;;;;;4970837;28;20497;-77
2022/11/10 05:40:08;;;;;;;62.08;15.13;;;;;;;;;;4985228;28;20465;-76
2022/11/10 05:42:34;;;;;;;54.80;14.80;;;;;;;;;;4972217;28;20482;-75
2022/11/10 05:45:00;;;;;;;50.80;15.32;;;;;;;;;;4983277;28;20121;-74
2022/11/10 05:47:26;;;;;;;55.53;15.05;;;;;;;;;;4979266;28;20040;-72
2022/11/10 05:49:52;;;;;;;62.05;15.23;;;;;;;;;;4968211;28;20121;-73
2022/11/10 05:52:18;;;;;;;63.47;15.65;;;;;;;;;;4972563;28;20031;-73
2022/11/10 05:54:44;;;;;;;60.13;14.82;;;;;;;;;;4971800;28;20068;-74
2022/11/10 05:57:10;;;;;;;62.92;15.45;;;;;;;;;;4987644;28;20069;-74
2022/11/10 05:59:36;;;;;;;54.08;15.65;;;;;;;;;;4973385;28;20034;-74
2022/11/10 06:02:02;;;;;;;58.25;15.70;;;;;;;;;;4976276;28;20037;-73
2022/11/10 06:04:28;;;;;;;60.80;14.25;;;;;;;;;;4974145;28;20023;-73
2022/11/10 06:06:54;;;;;;;58.83;16.23;;;;;;;;;;4971770;28;20065;-76
2022/11/10 06:09:20;;;;;;;55.47;14.70;;;;;;;;;;4997341;28;20105;-75
2022/11/10 06:11:46;;;;;;;67.15;16.10;;;;;;;;;;4995688;28;20049;-74
2022/11/10 06:14:12;;;;;;;53.78;15.25;;;;;;;;;;4975138;28;20034;-75
2022/11/10 06:16:38;;;;;;;51.08;15.18;;;;;;;;;;4977905;28;20030;-75
2022/11/10 06:19:04;;;;;;;56.50;15.05;;;;;;;;;;4995006;28;20039;-75
2022/11/10 06:21:30;;;;;;;60.10;15.57;;;;;;;;;;4974991;28;20034;-75
2022/11/10 06:23:56;;;;;;;55.35;15.25;;;;;;;;;;4970472;28;20509;-75
2022/11/10 06:26:22;;;;;;;56.03;15.52;;;;;;;;;;4993553;28;20054;-75
2022/11/10 06:28:48;;;;;;;59.55;15.75;;;;;;;;;;4993553;28;20090;-75
2022/11/10 06:31:14;;;;;;;59.03;14.98;;;;;;;;;;4998048;28;20497;-74
2022/11/10 06:33:41;;;;;;;51.63;14.32;;;;;;;;;;4990318;28;20038;-76
2022/11/10 06:36:08;;;;;;;64.88;16.92;;;;;;;;;;4977299;28;20035;-75
2022/11/10 06:38:34;;;;;;;56.67;14.93;;;;;;;;;;4986443;28;20094;-76
2022/11/10 06:41:00;;;;;;;60.45;14.25;;;;;;;;;;4995650;28;20054;-75
2022/11/10 06:43:26;;;;;;;53.85;13.68;;;;;;;;;;4995660;28;20092;-76
2022/11/10 06:45:52;;;;;;;49.15;13.55;;;;;;;;;;4993374;28;20046;-75
2022/11/10 06:48:18;;;;;;;66.55;13.65;;;;;;;;;;4996319;28;20034;-74
2022/11/10 06:50:45;;;;;;;63.40;14.65;;;;;;;;;;4997189;28;20493;-75
2022/11/10 06:53:12;;;;;;;53.70;14.00;;;;;;;;;;4993816;28;20501;-75
2022/11/10 06:55:38;;;;;;;60.40;14.98;;;;;;;;;;4967767;28;20035;-75
2022/11/10 06:58:04;;;;;;;58.40;14.07;;;;;;;;;;4979287;28;20030;-74
2022/11/10 07:00:30;;;;;;;48.63;13.38;;;;;;;;;;4982918;28;20272;-76
2022/11/10 07:03:00;;;;;;;60.78;13.85;;;;;;;;;;4996944;28;20057;-76
2022/11/10 07:05:26;;;;;;;53.90;14.52;;;;;;;;;;4994219;28;20022;-76
2022/11/10 07:07:52;;;;;;;45.67;12.68;;;;;;;;;;4996617;28;20034;-75
2022/11/10 07:10:18;;;;;;;60.53;13.13;;;;;;;;;;4993622;28;20550;-76
2022/11/10 07:12:44;;;;;;;48.05;12.52;;;;;;;;;;5004670;28;20049;-76
2022/11/10 07:15:11;;;;;;;44.55;13.07;;;;;;;;;;5001727;28;20461;-75
2022/11/10 07:17:39;;;;;;;46.60;12.02;;;;;;;;;;4994156;28;20055;-75
2022/11/10 07:20:06;;;;;;;42.80;13.05;;;;;;;;;;4995429;28;20026;-75
2022/11/10 07:22:32;;;;;;;50.03;12.23;;;;;;;;;;4995618;28;20038;-75
2022/11/10 07:24:58;;;;;;;40.67;10.52;;;;;;;;;;4976973;28;20038;-75
2022/11/10 07:27:24;;;;;;;57.03;15.05;;;;;;;;;;4970159;28;20059;-75
2022/11/10 07:29:50;;;;;;;60.05;11.90;;;;;;;;;;4996091;28;20421;-75
2022/11/10 07:32:16;;;;;;;59.20;13.45;;;;;;;;;;4964108;28;20031;-75
2022/11/10 07:34:42;;;;;;;53.28;12.35;;;;;;;;;;4986403;28;20030;-75
2022/11/10 07:37:08;;;;;;;50.45;11.63;;;;;;;;;;4996360;28;20026;-75
2022/11/10 07:39:34;;;;;;;43.65;11.52;;;;;;;;;;4974401;28;20054;-74
2022/11/10 07:42:00;;;;;;;45.80;11.60;;;;;;;;;;4993467;28;20468;-74
2022/11/10 07:44:26;;;;;;;46.83;13.25;;;;;;;;;;4983134;28;20095;-76
2022/11/10 07:46:52;;;;;;;44.53;10.18;;;;;;;;;;5000831;28;20034;-74
2022/11/10 07:49:18;;;;;;;40.85;10.25;;;;;;;;;;4993831;28;20039;-76
2022/11/10 07:51:44;;;;;;;41.33;9.98;;;;;;;;;;4975988;28;20049;-75
2022/11/10 07:54:10;;;;;;;42.20;11.30;;;;;;;;;;4992908;28;20030;-74
2022/11/10 07:56:36;;;;;;;49.78;10.88;;;;;;;;;;4975626;28;20081;-75
2022/11/10 07:59:03;;;;;;;36.65;9.27;;;;;;;;;;4980553;28;20034;-75
2022/11/10 08:01:29;;;;;;;52.25;10.52;;;;;;;;;;4989080;28;20030;-76
2022/11/10 08:03:55;;;;;;;40.35;8.48;;;;;;;;;;4968426;28;20490;-75
2022/11/10 08:06:21;;;;;;;46.05;8.93;;;;;;;;;;4966232;28;20065;-75
2022/11/10 08:08:47;;;;;;;43.45;9.13;;;;;;;;;;4986622;28;20046;-75
2022/11/10 08:11:13;;;;;;;42.03;8.88;;;;;;;;;;4972744;28;20125;-76
2022/11/10 08:13:39;;;;;;;38.97;8.95;;;;;;;;;;4959653;28;20117;-75
2022/11/10 08:16:05;;;;;;;28.15;8.90;;;;;;;;;;4988305;28;20034;-76
2022/11/10 08:18:31;;;;;;;39.28;10.27;;;;;;;;;;4986116;28;20057;-76
2022/11/10 08:21:00;;;;;;;29.50;7.97;;;;;;;;;;4987230;28;20427;-76
2022/11/10 08:23:27;;;;;;;41.22;8.60;;;;;;;;;;4984979;28;20037;-75
2022/11/10 08:25:53;;;;;;;33.55;8.02;;;;;;;;;;4967698;28;20046;-75
2022/11/10 08:28:19;;;;;;;32.40;8.73;;;;;;;;;;4984265;28;20043;-74
2022/11/10 08:30:46;;;;;;;40.95;8.40;;;;;;;;;;4981741;28;20042;-74
2022/11/10 08:33:13;;;;;;;38.88;9.88;;;;;;;;;;4985156;28;20081;-72
2022/11/10 08:35:41;;;;;;;36.92;7.60;;;;;;;;;;4987658;28;20109;-75
2022/11/10 08:38:07;;;;;;;36.97;8.65;;;;;;;;;;4984671;28;20023;-73
2022/11/10 08:40:33;;;;;;;40.28;7.40;;;;;;;;;;4989260;28;20030;-74
2022/11/10 08:43:00;;;;;;;30.73;6.90;;;;;;;;;;4985936;28;20464;-74
2022/11/10 08:45:26;;;;;;;32.78;7.45;;;;;;;;;;4984441;28;20100;-75
2022/11/10 08:47:56;;;;;;;36.13;8.90;;;;;;;;;;4991218;28;20054;-75
2022/11/10 08:50:22;;;;;;;29.13;7.57;;;;;;;;;;4995400;28;20405;-74
2022/11/10 08:52:48;;;;;;;36.28;7.30;;;;;;;;;;4988256;28;20785;-75
2022/11/10 08:55:14;;;;;;;30.33;6.50;;;;;;;;;;4973837;28;20107;-74
2022/11/10 08:57:40;;;;;;;30.27;7.80;;;;;;;;;;4982385;28;20072;-75
2022/11/10 09:00:07;;;;;;;32.35;7.30;;;;;;;;;;4982816;28;20096;-75
2022/11/10 09:02:33;;;;;;;37.88;8.30;;;;;;;;;;4955161;28;20580;-75
2022/11/10 09:04:59;;;;;;;32.67;7.15;;;;;;;;;;4986729;28;20061;-74
2022/11/10 09:07:25;;;;;;;34.95;8.18;;;;;;;;;;4985202;28;20491;-75
2022/11/10 09:09:51;;;;;;;31.95;7.38;;;;;;;;;;4985655;28;20121;-74
2022/11/10 09:12:17;;;;;;;32.45;7.13;;;;;;;;;;4970771;28;20545;-74
2022/11/10 09:14:43;;;;;;;26.10;7.35;;;;;;;;;;4982209;28;20080;-75
2022/11/10 09:17:09;;;;;;;30.63;7.35;;;;;;;;;;4984113;28;20030;-74
2022/11/10 09:19:35;;;;;;;38.38;8.13;;;;;;;;;;4991949;28;20045;-74
2022/11/10 09:22:01;;;;;;;33.30;7.72;;;;;;;;;;4975415;28;20034;-75
2022/11/10 09:24:27;;;;;;;31.02;6.93;;;;;;;;;;4982572;28;20057;-74
2022/11/10 09:26:53;;;;;;;31.63;7.05;;;;;;;;;;4979605;28;20062;-75
2022/11/10 09:29:20;;;;;;;30.83;7.88;;;;;;;;;;4971744;28;20077;-74
2022/11/10 09:31:46;;;;;;;28.30;6.22;;;;;;;;;;4980652;28;20066;-74
2022/11/10 09:34:12;;;;;;;28.50;6.35;;;;;;;;;;4987777;28;20489;-74
2022/11/10 09:36:39;;;;;;;28.38;6.03;;;;;;;;;;4972494;28;20031;-74
2022/11/10 09:39:05;;;;;;;32.35;6.20;;;;;;;;;;4973481;28;20034;-73
2022/11/10 09:41:31;;;;;;;33.50;7.15;;;;;;;;;;4990092;28;20493;-75
2022/11/10 09:44:03;;;;;;;33.47;7.13;;;;;;;;;;4972406;28;20159;-73
2022/11/10 09:46:36;;;;;;;29.60;6.40;;;;;;;;;;4987920;28;20022;-74
2022/11/10 09:49:06;;;;;;;31.80;6.88;;;;;;;;;;4971890;28;20038;-74
2022/11/10 09:51:35;;;;;;;29.13;5.90;;;;;;;;;;4982726;28;20106;-74
2022/11/10 09:54:09;;;;;;;24.83;5.72;;;;;;;;;;4990339;28;20034;-73
2022/11/10 09:56:36;;;;;;;29.30;5.63;;;;;;;;;;4987983;28;20026;-75
2022/11/10 09:59:25;;;;;;;24.90;6.22;;;;;;;;;;4975856;28;20043;-75
2022/11/10 10:01:56;;;;;;;25.95;5.50;;;;;;;;;;4988585;28;20116;-74
2022/11/10 10:04:25;;;;;;;36.63;8.13;;;;;;;;;;4973344;28;20121;-72
2022/11/10 10:07:14;;;;;;;27.98;5.82;;;;;;;;;;4984048;28;20026;-75
2022/11/10 10:09:46;;;;;;;27.02;6.03;;;;;;;;;;4971576;28;20122;-75
2022/11/10 10:12:33;;;;;;;31.70;7.72;;;;;;;;;;4990157;28;20164;-72
2022/11/10 10:14:59;;;;;;;31.60;5.78;;;;;;;;;;4963307;28;20027;-75
2022/11/10 10:17:25;;;;;;;29.23;7.70;;;;;;;;;;4984838;28;20034;-72
2022/11/10 10:19:51;;;;;;;30.10;6.93;;;;;;;;;;4986063;28;20046;-75
2022/11/10 10:22:17;;;;;;;23.83;6.15;;;;;;;;;;4995716;28;20560;-75
2022/11/10 10:24:43;;;;;;;23.42;5.55;;;;;;;;;;4991860;28;20394;-73
2022/11/10 10:27:17;;;;;;;28.83;6.25;;;;;;;;;;4994232;28;20042;-73
2022/11/10 10:29:45;;;;;;;32.72;6.60;;;;;;;;;;4973596;28;20485;-73
2022/11/10 10:32:12;;;;;;;24.10;5.80;;;;;;;;;;4989989;28;20039;-73
2022/11/10 10:34:38;;;;;;;35.75;6.22;;;;;;;;;;4990083;28;20103;-74
2022/11/10 10:37:04;;;;;;;22.17;5.20;;;;;;;;;;4987087;28;20022;-77
2022/11/10 10:39:35;;;;;;;28.10;5.72;;;;;;;;;;4991039;28;20061;-77
2022/11/10 10:42:01;;;;;;;31.73;7.10;;;;;;;;;;4988213;28;20480;-75
2022/11/10 10:44:27;;;;;;;22.50;5.13;;;;;;;;;;4991288;28;20034;-76
2022/11/10 10:46:58;;;;;;;24.73;5.63;;;;;;;;;;4987722;28;20050;-76
2022/11/10 10:49:25;;;;;;;24.75;4.57;;;;;;;;;;4978123;28;20093;-75
2022/11/10 10:52:14;;;;;;;24.45;5.90;;;;;;;;;;4993241;28;20034;-75
2022/11/10 10:54:40;;;;;;;40.90;7.35;;;;;;;;;;4986884;28;20046;-75
2022/11/10 10:57:29;;;;;;;34.00;6.45;;;;;;;;;;4989669;28;20030;-75
2022/11/10 11:00:16;;;;;;;30.52;4.88;;;;;;;;;;4995286;28;20030;-75
2022/11/10 11:02:42;;;;;;;22.73;5.82;;;;;;;;;;4952471;28;20182;-76
2022/11/10 11:05:08;;;;;;;22.42;4.55;;;;;;;;;;4991208;28;20031;-75
2022/11/10 11:07:34;;;;;;;29.88;5.03;;;;;;;;;;4992014;28;20101;-76
2022/11/10 11:10:01;;;;;;;29.33;6.50;;;;;;;;;;4969429;28;20078;-75
2022/11/10 11:12:30;;;;;;;28.48;5.25;;;;;;;;;;4985199;28;20023;-75
2022/11/10 11:15:14;;;;;;;30.52;5.35;;;;;;;;;;4990435;28;21396;-75
2022/11/10 11:17:52;;;;;;;24.90;4.25;;;;;;;;;;4986289;28;20057;-75
2022/11/10 11:20:19;;;;;;;26.90;4.40;;;;;;;;;;4973226;28;20459;-74
2022/11/10 11:22:55;;;;;;;23.83;5.47;;;;;;;;;;4988795;28;20049;-76
2022/11/10 11:25:30;;;;;;;24.90;4.97;;;;;;;;;;4980872;28;20132;-75
2022/11/10 11:28:05;;;;;;;18.17;4.90;;;;;;;;;;4973668;28;20041;-75
2022/11/10 11:30:44;;;;;;;26.40;4.60;;;;;;;;;;4956761;28;20039;-76
2022/11/10 11:33:29;;;;;;;20.17;3.72;;;;;;;;;;4974303;28;20049;-76
2022/11/10 11:36:02;;;;;;;30.02;5.97;;;;;;;;;;4966892;28;20033;-76
2022/11/10 11:38:32;;;;;;;23.60;3.83;;;;;;;;;;4975874;28;20027;-75
2022/11/10 11:41:00;;;;;;;23.10;3.92;;;;;;;;;;4971009;28;20023;-75
2022/11/10 11:43:39;;;;;;;21.42;4.70;;;;;;;;;;4979440;28;20034;-75
2022/11/10 11:46:11;;;;;;;29.13;4.82;;;;;;;;;;4973851;28;20161;-76
2022/11/10 11:48:37;;;;;;;23.15;4.50;;;;;;;;;;4974394;28;20031;-76
2022/11/10 11:51:11;;;;;;;22.30;4.20;;;;;;;;;;4948501;29;20035;-74
2022/11/10 11:53:45;;;;;;;17.45;3.88;;;;;;;;;;4972687;28;20027;-76
2022/11/10 11:56:12;;;;;;;27.23;4.65;;;;;;;;;;4960926;28;20026;-75
2022/11/10 11:58:56;;;;;;;22.40;4.97;;;;;;;;;;4975806;28;20086;-76
2022/11/10 12:01:41;;;;;;;25.65;4.53;;;;;;;;;;4969335;28;20018;-76
2022/11/10 12:04:28;;;;;;;22.65;5.22;;;;;;;;;;4977654;28;20042;-76
2022/11/10 12:06:59;;;;;;;22.50;5.20;;;;;;;;;;4975014;28;20023;-73
2022/11/10 12:09:34;;;;;;;20.30;4.13;;;;;;;;;;4971468;28;20066;-75
2022/11/10 12:12:07;;;;;;;23.90;4.85;;;;;;;;;;4973185;28;20043;-74
2022/11/10 12:15:11;;;;;;;19.77;4.20;;;;;;;;;;4971695;28;20032;-73
2022/11/10 12:17:39;;;;;;;22.95;4.22;;;;;;;;;;4893095;29;20073;-76
2022/11/10 12:20:13;;;;;;;21.15;3.95;;;;;;;;;;4883372;29;20112;-74
2022/11/10 12:22:49;;;;;;;21.15;4.30;;;;;;;;;;4931802;28;20498;-75
2022/11/10 12:25:15;;;;;;;21.05;4.40;;;;;;;;;;4971620;28;20027;-75
2022/11/10 12:27:44;;;;;;;21.27;4.22;;;;;;;;;;4989399;28;20043;-75
2022/11/10 12:30:12;;;;;;;22.05;3.80;;;;;;;;;;4983375;28;20027;-75
2022/11/10 12:32:38;;;;;;;16.27;5.28;;;;;;;;;;4989743;28;20026;-75
2022/11/10 12:35:25;;;;;;;21.98;4.57;;;;;;;;;;4991653;28;20025;-76
2022/11/10 12:38:10;;;;;;;26.92;5.05;;;;;;;;;;4973879;28;20066;-75
2022/11/10 12:40:43;;;;;;;21.15;4.95;;;;;;;;;;4986481;28;20037;-75
2022/11/10 12:43:28;;;;;;;24.92;5.97;;;;;;;;;;4986037;28;20034;-76
2022/11/10 12:45:57;;;;;;;23.25;4.30;;;;;;;;;;4985126;28;20112;-74
2022/11/10 12:48:23;;;;;;;21.98;4.45;;;;;;;;;;4991806;28;20034;-74
2022/11/10 12:50:56;;;;;;;20.90;3.80;;;;;;;;;;4987222;28;20030;-76
2022/11/10 12:53:39;;;;;;;20.55;4.60;;;;;;;;;;4982651;28;20018;-76
2022/11/10 12:56:25;;;;;;;20.70;5.05;;;;;;;;;;4987660;28;20088;-74
2022/11/10 12:59:11;;;;;;;19.33;4.53;;;;;;;;;;4989620;28;20038;-73
2022/11/10 13:01:42;;;;;;;19.75;4.43;;;;;;;;;;4987227;28;20118;-75
2022/11/10 13:04:07;;;;;;;;;;;;;;;;;;4973728;28;20031;-74
2022/11/10 13:06:39;;;;;;;20.65;4.28;;;;;;;;;;4981437;28;19917;-76
2022/11/10 13:09:05;;;;;;;17.08;3.88;;;;;;;;;;4991995;28;20029;-74
2022/11/10 13:11:31;;;;;;;18.88;3.78;;;;;;;;;;4988764;28;20046;-74
2022/11/10 13:14:00;;;;;;;24.40;3.80;;;;;;;;;;4991900;28;20019;-75
2022/11/10 13:16:46;;;;;;;18.85;4.32;;;;;;;;;;4987456;28;20038;-73
2022/11/10 13:19:32;;;;;;;20.90;3.95;;;;;;;;;;4987097;28;20104;-72
2022/11/10 13:22:02;;;;;;;19.02;4.60;;;;;;;;;;4987824;28;20560;-73
2022/11/10 13:24:33;;;;;;;21.67;5.22;;;;;;;;;;4991460;28;20034;-75
2022/11/10 13:26:59;;;;;;;15.75;4.00;;;;;;;;;;4979430;28;20041;-73
2022/11/10 13:29:33;;;;;;;24.58;4.03;;;;;;;;;;4979385;28;20474;-75
2022/11/10 13:32:20;;;;;;;17.27;4.18;;;;;;;;;;4989550;28;20494;-73
2022/11/10 13:34:47;;;;;;;18.23;3.15;;;;;;;;;;4991224;28;20104;-74
2022/11/10 13:37:31;;;;;;;24.02;4.07;;;;;;;;;;4987757;28;20038;-75
2022/11/10 13:40:16;;;;;;;23.30;3.30;;;;;;;;;;4989668;28;20173;-73
2022/11/10 13:42:43;;;;;;;19.40;3.83;;;;;;;;;;4988192;28;20014;-73
2022/11/10 13:45:28;;;;;;;27.08;3.95;;;;;;;;;;4988191;28;20129;-73
2022/11/10 13:48:17;;;;;;;18.55;4.30;;;;;;;;;;4984647;28;20109;-73
2022/11/10 13:50:51;;;;;;;19.23;4.18;;;;;;;;;;4970500;28;20129;-73
2022/11/10 13:53:24;;;;;;;29.23;3.67;;;;;;;;;;4989833;28;20515;-73
2022/11/10 13:56:20;;;;;;;23.75;3.95;;;;;;;;;;4990889;28;20029;-74
2022/11/10 13:58:46;;;;;;;18.23;3.40;;;;;;;;;;4982043;28;20138;-74
2022/11/10 14:01:18;;;;;;;23.73;4.65;;;;;;;;;;4988712;28;20812;-73
2022/11/10 14:03:47;;;;;;;22.73;4.47;;;;;;;;;;4989245;28;20030;-75
2022/11/10 14:06:16;;;;;;;17.50;3.60;;;;;;;;;;4990479;28;20033;-74
2022/11/10 14:08:45;;;;;;;16.13;3.25;;;;;;;;;;4991228;28;20052;-75
2022/11/10 14:11:31;;;;;;;21.95;4.18;;;;;;;;;;4977186;28;20045;-73
2022/11/10 14:14:00;;;;;;;16.45;3.67;;;;;;;;;;4988926;28;20038;-73
2022/11/10 14:16:27;;;;;;;16.63;3.40;;;;;;;;;;4988950;28;20022;-74
2022/11/10 14:18:58;;;;;;;20.92;3.60;;;;;;;;;;4990492;28;20489;-75
2022/11/10 14:21:29;;;;;;;25.52;4.60;;;;;;;;;;4992472;28;20058;-74
2022/11/10 14:23:58;;;;;;;27.10;3.80;;;;;;;;;;4987873;28;20385;-73
2022/11/10 14:26:27;;;;;;;14.52;3.47;;;;;;;;;;4987841;28;20046;-73
2022/11/10 14:28:53;;;;;;;18.08;2.95;;;;;;;;;;4969830;28;20561;-74
2022/11/10 14:31:21;;;;;;;25.42;4.10;;;;;;;;;;4981911;28;20118;-73
2022/11/10 14:33:57;;;;;;;16.17;3.67;;;;;;;;;;4988635;28;20034;-75
2022/11/10 14:36:23;;;;;;;12.60;3.03;;;;;;;;;;4970565;28;20112;-74
2022/11/10 14:38:50;;;;;;;16.83;2.90;;;;;;;;;;4989230;28;20493;-74
2022/11/10 14:41:21;;;;;;;15.35;3.20;;;;;;;;;;4982700;28;20106;-75
2022/11/10 14:44:03;;;;;;;20.35;3.63;;;;;;;;;;4977951;28;20035;-74
2022/11/10 14:46:29;;;;;;;20.75;3.20;;;;;;;;;;4996065;28;20058;-76